createdAt,value
2022-09-01T00:01:42.211Z,8.90
2022-09-01T00:04:17.005Z,8.98
2022-09-01T00:06:43.909Z,9.63
2022-09-01T00:09:14.198Z,9.55
2022-09-01T00:11:43.693Z,10.10
2022-09-01T00:14:22.306Z,9.57
2022-09-01T00:17:01.986Z,9.88
2022-09-01T00:19:29.733Z,10.32
2022-09-01T00:21:57.305Z,9.43
2022-09-01T00:24:26.235Z,9.38
2022-09-01T00:26:53.987Z,9.40
2022-09-01T00:29:20.871Z,10.00
2022-09-01T00:31:47.967Z,9.93
2022-09-01T00:34:14.801Z,9.85
2022-09-01T00:36:41.631Z,10.45
2022-09-01T00:39:09.061Z,10.00
2022-09-01T00:41:41.750Z,9.55
2022-09-01T00:44:12.173Z,9.52
2022-09-01T00:46:47.593Z,9.90
2022-09-01T00:49:26.106Z,10.43
2022-09-01T00:51:59.853Z,9.83
2022-09-01T00:54:32.390Z,10.60
2022-09-01T00:56:59.886Z,10.15
2022-09-01T00:59:27.971Z,10.45
2022-09-01T01:01:56.438Z,10.05
2022-09-01T01:04:23.006Z,9.83
2022-09-01T01:07:01.826Z,9.63
2022-09-01T01:09:32.069Z,10.05
2022-09-01T01:12:00.647Z,9.65
2022-09-01T01:14:31.419Z,10.23
2022-09-01T01:17:00.076Z,9.40
2022-09-01T01:20:02.427Z,9.85
2022-09-01T01:23:02.710Z,9.57
2022-09-01T01:25:42.001Z,10.13
2022-09-01T01:28:31.989Z,9.40
2022-09-01T01:31:06.200Z,9.37
2022-09-01T01:33:51.258Z,9.25
2022-09-01T01:36:32.136Z,10.05
2022-09-01T01:39:03.519Z,9.70
2022-09-01T01:41:32.892Z,9.63
2022-09-01T01:44:04.332Z,9.27
2022-09-01T01:46:33.338Z,9.60
2022-09-01T01:49:02.467Z,9.57
2022-09-01T01:51:31.877Z,9.93
2022-09-01T01:53:59.697Z,10.48
2022-09-01T01:56:26.217Z,9.73
2022-09-01T01:58:55.423Z,9.85
2022-09-01T02:01:32.058Z,10.43
2022-09-01T02:04:00.595Z,10.15
2022-09-01T02:06:28.542Z,9.98
2022-09-01T02:08:58.061Z,9.80
2022-09-01T02:11:26.413Z,9.88
2022-09-01T02:13:57.486Z,9.95
2022-09-01T02:16:26.228Z,9.77
2022-09-01T02:18:54.021Z,11.27
2022-09-01T02:21:23.285Z,10.20
2022-09-01T02:24:03.490Z,10.73
2022-09-01T02:26:34.110Z,10.02
2022-09-01T02:29:05.080Z,10.05
2022-09-01T02:31:35.699Z,10.15
2022-09-01T02:34:02.479Z,10.63
2022-09-01T02:36:32.791Z,10.43
2022-09-01T02:38:59.257Z,10.73
2022-09-01T02:41:29.293Z,10.30
2022-09-01T02:43:56.049Z,9.82
2022-09-01T02:46:24.558Z,10.23
2022-09-01T02:48:51.548Z,10.05
2022-09-01T02:51:22.582Z,9.35
2022-09-01T02:53:52.711Z,9.82
2022-09-01T02:56:25.126Z,9.63
2022-09-01T02:58:53.181Z,9.43
2022-09-01T03:01:25.004Z,9.93
2022-09-01T03:03:54.945Z,10.27
2022-09-01T03:06:24.274Z,9.88
2022-09-01T03:08:53.484Z,11.23
2022-09-01T03:11:20.186Z,9.77
2022-09-01T03:13:47.026Z,10.20
2022-09-01T03:16:13.693Z,9.93
2022-09-01T03:18:40.464Z,9.95
2022-09-01T03:21:08.458Z,10.10
2022-09-01T03:23:38.005Z,10.03
2022-09-01T03:26:04.582Z,10.23
2022-09-01T03:28:31.942Z,9.70
2022-09-01T03:30:59.352Z,9.50
2022-09-01T03:33:28.294Z,9.50
2022-09-01T03:35:55.981Z,9.57
2022-09-01T03:38:24.287Z,9.63
2022-09-01T03:41:02.106Z,9.43
2022-09-01T03:43:35.531Z,9.52
2022-09-01T03:46:03.423Z,9.73
2022-09-01T03:48:31.679Z,9.10
2022-09-01T03:51:03.186Z,9.18
2022-09-01T03:53:32.522Z,10.70
2022-09-01T03:56:00.249Z,8.80
2022-09-01T03:58:27.151Z,10.10
2022-09-01T04:00:58.310Z,9.80
2022-09-01T04:03:29.104Z,9.35
2022-09-01T04:05:56.145Z,9.73
2022-09-01T04:08:27.539Z,10.38
2022-09-01T04:11:02.989Z,9.23
2022-09-01T04:13:37.702Z,9.20
2022-09-01T04:16:31.003Z,10.07
2022-09-01T04:18:57.643Z,9.77
2022-09-01T04:21:24.195Z,8.93
2022-09-01T04:23:50.638Z,9.45
2022-09-01T04:26:20.545Z,9.37
2022-09-01T04:28:50.882Z,9.20
2022-09-01T04:31:20.099Z,9.57
2022-09-01T04:33:49.771Z,8.90
2022-09-01T04:36:25.893Z,9.38
2022-09-01T04:38:56.114Z,9.10
2022-09-01T04:41:25.675Z,9.43
2022-09-01T04:43:57.077Z,8.95
2022-09-01T04:46:28.467Z,8.57
2022-09-01T04:48:55.870Z,9.30
2022-09-01T04:51:24.074Z,9.20
2022-09-01T04:53:50.705Z,8.68
2022-09-01T04:56:20.728Z,9.18
2022-09-01T04:58:47.881Z,8.82
2022-09-01T05:01:21.638Z,8.98
2022-09-01T05:03:56.456Z,9.97
2022-09-01T05:06:23.247Z,9.38
2022-09-01T05:08:50.383Z,9.18
2022-09-01T05:11:17.843Z,9.55
2022-09-01T05:13:49.214Z,9.30
2022-09-01T05:16:25.310Z,9.60
2022-09-01T05:18:54.251Z,9.13
2022-09-01T05:21:24.724Z,10.18
2022-09-01T05:23:51.948Z,8.55
2022-09-01T05:26:25.008Z,9.60
2022-09-01T05:28:54.925Z,9.63
2022-09-01T05:31:23.412Z,9.77
2022-09-01T05:33:50.914Z,10.52
2022-09-01T05:36:20.201Z,9.95
2022-09-01T05:38:48.142Z,10.63
2022-09-01T05:41:16.447Z,9.27
2022-09-01T05:43:49.011Z,9.38
2022-09-01T05:46:17.677Z,10.52
2022-09-01T05:48:45.756Z,10.30
2022-09-01T05:51:40.317Z,10.63
2022-09-01T05:54:03.454Z,10.47
2022-09-01T05:56:31.303Z,10.70
2022-09-01T06:01:50.449Z,10.15
2022-09-01T06:04:17.524Z,10.20
2022-09-01T06:07:07.077Z,10.00
2022-09-01T06:09:33.951Z,10.60
2022-09-01T06:12:01.945Z,10.52
2022-09-01T06:14:28.493Z,10.57
2022-09-01T06:16:54.910Z,9.85
2022-09-01T06:19:21.349Z,10.40
2022-09-01T06:21:48.983Z,9.25
2022-09-01T06:24:15.446Z,10.07
2022-09-01T06:26:42.264Z,9.95
2022-09-01T06:29:15.323Z,9.98
2022-09-01T06:31:43.315Z,9.73
2022-09-01T06:34:17.691Z,10.80
2022-09-01T06:36:46.108Z,10.18
2022-09-01T06:39:19.722Z,10.45
2022-09-01T06:41:49.753Z,9.77
2022-09-01T06:44:22.351Z,9.27
2022-09-01T06:46:51.990Z,9.35
2022-09-01T06:49:19.315Z,9.65
2022-09-01T06:51:51.789Z,9.13
2022-09-01T06:54:21.165Z,10.35
2022-09-01T06:56:51.960Z,8.37
2022-09-01T06:59:21.808Z,10.20
2022-09-01T07:02:01.476Z,10.25
2022-09-01T07:04:43.169Z,9.70
2022-09-01T07:10:17.757Z,9.13
2022-09-01T07:13:05.609Z,8.88
2022-09-01T07:18:25.158Z,8.05
2022-09-01T07:21:36.296Z,9.30
2022-09-01T07:26:26.852Z,8.07
2022-09-01T07:29:01.001Z,8.82
2022-09-01T07:31:52.085Z,8.48
2022-09-01T07:34:38.851Z,8.68
2022-09-01T07:39:53.437Z,8.10
2022-09-01T07:45:28.000Z,7.90
2022-09-01T07:47:55.615Z,8.27
2022-09-01T07:51:34.281Z,7.13
2022-09-01T07:53:12.685Z,8.55
2022-09-01T07:55:42.233Z,8.00
2022-09-01T07:58:11.070Z,7.45
2022-09-01T08:00:43.596Z,7.00
2022-09-01T08:03:10.260Z,7.37
2022-09-01T08:05:38.121Z,6.85
2022-09-01T08:08:18.652Z,7.25
2022-09-01T08:10:49.074Z,6.93
2022-09-01T08:13:17.053Z,6.68
2022-09-01T08:18:47.940Z,7.07
2022-09-01T08:21:16.694Z,7.03
2022-09-01T08:23:44.306Z,6.38
2022-09-01T08:26:13.472Z,6.35
2022-09-01T08:28:45.985Z,5.87
2022-09-01T08:31:16.232Z,6.28
2022-09-01T08:33:44.418Z,7.78
2022-09-01T08:36:13.525Z,6.30
2022-09-01T08:38:41.270Z,6.95
2022-09-01T08:41:17.526Z,6.10
2022-09-01T08:44:04.863Z,5.32
2022-09-01T08:46:39.989Z,5.97
2022-09-01T08:49:28.762Z,6.07
2022-09-01T08:52:07.581Z,6.95
2022-09-01T08:54:46.842Z,6.47
2022-09-01T08:57:20.710Z,5.53
2022-09-01T08:59:47.567Z,5.55
2022-09-01T09:02:27.833Z,6.03
2022-09-01T09:05:00.808Z,6.13
2022-09-01T09:08:07.972Z,5.67
2022-09-01T09:10:55.584Z,5.65
2022-09-01T09:14:15.666Z,5.85
2022-09-01T09:16:51.573Z,5.70
2022-09-01T09:19:28.403Z,5.20
2022-09-01T09:21:58.692Z,5.40
2022-09-01T09:24:47.592Z,5.68
2022-09-01T09:27:20.054Z,5.22
2022-09-01T09:29:48.830Z,5.20
2022-09-01T09:32:23.007Z,5.80
2022-09-01T09:34:52.751Z,5.30
2022-09-01T09:37:22.386Z,5.47
2022-09-01T09:40:12.200Z,5.32
2022-09-01T09:42:40.802Z,5.50
2022-09-01T09:45:22.905Z,5.53
2022-09-01T09:47:49.728Z,5.10
2022-09-01T09:50:23.813Z,5.32
2022-09-01T09:52:52.603Z,5.10
2022-09-01T09:55:24.190Z,5.70
2022-09-01T09:57:54.658Z,5.65
2022-09-01T10:00:25.790Z,4.83
2022-09-01T10:02:58.867Z,4.80
2022-09-01T10:05:40.106Z,4.93
2022-09-01T10:08:10.526Z,4.55
2022-09-01T10:10:57.502Z,4.85
2022-09-01T10:13:27.589Z,4.40
2022-09-01T10:16:00.180Z,4.90
2022-09-01T10:18:35.220Z,5.20
2022-09-01T10:21:04.306Z,5.10
2022-09-01T10:23:34.670Z,5.05
2022-09-01T10:26:09.482Z,4.37
2022-09-01T10:28:49.500Z,4.35
2022-09-01T10:31:17.915Z,4.28
2022-09-01T10:33:45.321Z,4.00
2022-09-01T10:36:13.879Z,4.40
2022-09-01T10:38:52.627Z,4.23
2022-09-01T10:41:53.300Z,4.47
2022-09-01T10:44:33.788Z,4.80
2022-09-01T10:47:24.429Z,3.97
2022-09-01T10:49:50.870Z,3.83
2022-09-01T10:52:43.100Z,3.67
2022-09-01T10:55:26.682Z,4.40
2022-09-01T10:59:30.476Z,4.40
2022-09-01T11:03:56.308Z,4.00
2022-09-01T11:06:42.243Z,3.80
2022-09-01T11:09:37.903Z,3.65
2022-09-01T11:12:17.330Z,3.60
2022-09-01T11:15:02.426Z,3.50
2022-09-01T11:17:36.618Z,3.28
2022-09-01T11:20:10.555Z,3.40
2022-09-01T11:22:43.314Z,3.50
2022-09-01T11:25:13.024Z,3.80
2022-09-01T11:27:48.444Z,3.45
2022-09-01T11:30:24.205Z,3.33
2022-09-01T11:32:59.567Z,3.13
2022-09-01T11:35:28.946Z,3.80
2022-09-01T11:38:02.002Z,3.53
2022-09-01T11:40:32.575Z,3.30
2022-09-01T11:43:05.550Z,3.28
2022-09-01T11:45:42.113Z,3.33
2022-09-01T11:48:13.304Z,2.75
2022-09-01T11:50:42.553Z,3.38
2022-09-01T11:53:13.306Z,2.72
2022-09-01T11:55:42.387Z,3.72
2022-09-01T11:58:17.930Z,3.43
2022-09-01T12:00:44.906Z,3.65
2022-09-01T12:03:24.988Z,3.20
2022-09-01T12:05:59.506Z,3.55
2022-09-01T12:08:30.513Z,3.38
2022-09-01T12:11:20.546Z,3.40
2022-09-01T12:14:03.986Z,3.30
2022-09-01T12:16:34.812Z,3.38
2022-09-01T12:19:01.467Z,3.70
2022-09-01T12:21:34.017Z,3.90
2022-09-01T12:24:32.696Z,3.30
2022-09-01T12:27:01.340Z,3.83
2022-09-01T12:29:32.209Z,3.53
2022-09-01T12:32:00.156Z,3.67
2022-09-01T12:35:11.100Z,3.58
2022-09-01T12:37:38.534Z,4.00
2022-09-01T12:40:05.333Z,3.45
2022-09-01T12:42:39.540Z,3.40
2022-09-01T12:45:10.206Z,3.45
2022-09-01T12:47:37.343Z,4.18
2022-09-01T12:50:08.649Z,3.67
2022-09-01T12:52:44.955Z,3.70
2022-09-01T12:58:09.938Z,3.95
2022-09-01T13:00:58.518Z,3.78
2022-09-01T13:03:27.538Z,4.03
2022-09-01T13:05:56.402Z,3.38
2022-09-01T13:08:28.857Z,3.40
2022-09-01T13:11:01.399Z,3.00
2022-09-01T13:13:28.842Z,3.30
2022-09-01T13:16:00.045Z,2.63
2022-09-01T13:18:27.945Z,2.72
2022-09-01T13:20:55.950Z,3.05
2022-09-01T13:23:23.029Z,2.92
2022-09-01T13:25:49.897Z,3.78
2022-09-01T13:28:17.313Z,3.63
2022-09-01T13:30:48.700Z,3.13
2022-09-01T13:33:19.021Z,3.08
2022-09-01T13:35:46.130Z,2.92
2022-09-01T13:38:16.119Z,3.33
2022-09-01T13:40:47.280Z,3.20
2022-09-01T13:43:15.366Z,3.05
2022-09-01T13:45:42.205Z,3.70
2022-09-01T13:48:17.252Z,3.58
2022-09-01T13:53:32.798Z,3.33
2022-09-01T13:55:59.263Z,2.90
2022-09-01T13:58:25.722Z,3.45
2022-09-01T14:00:52.772Z,3.17
2022-09-01T14:03:22.772Z,3.33
2022-09-01T14:05:49.754Z,2.80
2022-09-01T14:08:19.073Z,3.10
2022-09-01T14:10:48.965Z,2.92
2022-09-01T14:13:15.855Z,2.92
2022-09-01T14:15:42.676Z,3.40
2022-09-01T14:18:09.202Z,2.80
2022-09-01T14:20:41.152Z,2.60
2022-09-01T14:23:08.935Z,3.20
2022-09-01T14:25:35.626Z,2.80
2022-09-01T14:28:03.869Z,2.65
2022-09-01T14:30:32.136Z,2.20
2022-09-01T14:33:02.698Z,2.08
2022-09-01T14:35:33.198Z,2.13
2022-09-01T14:38:01.247Z,2.38
2022-09-01T14:40:29.366Z,3.30
2022-09-01T14:42:56.426Z,2.57
2022-09-01T14:45:25.788Z,2.45
2022-09-01T14:47:55.320Z,2.58
2022-09-01T14:50:23.715Z,2.38
2022-09-01T14:52:53.785Z,2.30
2022-09-01T14:55:25.516Z,1.80
2022-09-01T14:57:52.455Z,2.38
2022-09-01T15:00:19.518Z,2.35
2022-09-01T15:02:46.677Z,1.80
2022-09-01T15:05:14.429Z,2.58
2022-09-01T15:07:42.160Z,2.33
2022-09-01T15:10:10.631Z,2.00
2022-09-01T15:12:42.789Z,2.10
2022-09-01T15:15:10.171Z,2.10
2022-09-01T15:17:36.730Z,2.50
2022-09-01T15:20:23.408Z,2.30
2022-09-01T15:22:50.466Z,1.95
2022-09-01T15:25:17.447Z,2.95
2022-09-01T15:27:43.950Z,2.67
2022-09-01T15:30:17.925Z,2.40
2022-09-01T15:32:50.183Z,2.30
2022-09-01T15:35:18.243Z,2.28
2022-09-01T15:37:47.550Z,2.35
2022-09-01T15:40:14.190Z,2.50
2022-09-01T15:42:40.691Z,2.47
2022-09-01T15:45:12.220Z,2.30
2022-09-01T15:47:44.912Z,1.98
2022-09-01T15:50:21.543Z,2.75
2022-09-01T15:52:58.660Z,2.10
2022-09-01T15:55:31.663Z,2.10
2022-09-01T15:57:58.970Z,2.00
2022-09-01T16:00:26.778Z,2.10
2022-09-01T16:02:55.540Z,2.35
2022-09-01T16:05:22.670Z,2.20
2022-09-01T16:07:51.576Z,2.50
2022-09-01T16:10:18.562Z,2.00
2022-09-01T16:12:46.617Z,2.40
2022-09-01T16:15:16.608Z,2.42
2022-09-01T16:17:49.082Z,2.50
2022-09-01T16:20:24.205Z,2.47
2022-09-01T16:22:55.368Z,1.80
2022-09-01T16:25:31.581Z,2.10
2022-09-01T16:28:04.735Z,1.88
2022-09-01T16:30:31.190Z,1.95
2022-09-01T16:33:01.157Z,2.17
2022-09-01T16:35:46.230Z,1.73
2022-09-01T16:38:37.602Z,1.90
2022-09-01T16:41:44.476Z,1.85
2022-09-01T16:44:21.686Z,1.90
2022-09-01T16:47:04.130Z,2.05
2022-09-01T16:49:34.898Z,2.10
2022-09-01T16:52:30.956Z,2.20
2022-09-01T16:55:35.995Z,1.85
2022-09-01T16:58:24.273Z,1.70
2022-09-01T17:01:17.156Z,2.22
2022-09-01T17:03:57.987Z,2.10
2022-09-01T17:06:36.525Z,1.58
2022-09-01T17:09:16.575Z,1.73
2022-09-01T17:11:49.623Z,1.42
2022-09-01T17:14:31.561Z,2.35
2022-09-01T17:17:10.715Z,1.60
2022-09-01T17:19:40.850Z,1.50
2022-09-01T17:22:11.665Z,1.83
2022-09-01T17:24:39.922Z,1.98
2022-09-01T17:27:14.116Z,2.20
2022-09-01T17:29:45.131Z,1.63
2022-09-01T17:32:48.316Z,1.40
2022-09-01T17:35:58.430Z,1.73
2022-09-01T17:38:54.125Z,1.77
2022-09-01T17:41:34.969Z,2.15
2022-09-01T17:44:26.635Z,1.50
2022-09-01T17:47:23.403Z,1.73
2022-09-01T17:50:10.847Z,1.80
2022-09-01T17:53:02.206Z,1.77
2022-09-01T17:55:45.128Z,1.73
2022-09-01T17:58:41.043Z,2.13
2022-09-01T18:01:21.342Z,1.77
2022-09-01T18:04:20.043Z,1.60
2022-09-01T18:07:14.787Z,1.58
2022-09-01T18:09:46.304Z,1.98
2022-09-01T18:12:18.923Z,2.03
2022-09-01T18:15:09.017Z,1.90
2022-09-01T18:17:44.705Z,2.22
2022-09-01T18:20:19.365Z,2.20
2022-09-01T18:23:05.034Z,2.80
2022-09-01T18:25:39.529Z,1.90
2022-09-01T18:28:06.375Z,2.08
2022-09-01T18:30:55.790Z,2.45
2022-09-01T18:33:32.887Z,2.33
2022-09-01T18:36:16.975Z,2.22
2022-09-01T18:38:55.880Z,2.20
2022-09-01T18:41:40.236Z,2.08
2022-09-01T18:44:19.041Z,2.45
2022-09-01T18:47:01.228Z,2.20
2022-09-01T18:49:36.658Z,2.67
2022-09-01T18:52:12.630Z,2.43
2022-09-01T18:54:44.360Z,3.05
2022-09-01T18:57:21.097Z,2.60
2022-09-01T19:00:02.903Z,2.65
2022-09-01T19:02:45.660Z,2.58
2022-09-01T19:05:32.781Z,2.60
2022-09-01T19:08:04.721Z,2.67
2022-09-01T19:10:42.370Z,2.83
2022-09-01T19:13:18.050Z,2.40
2022-09-01T19:15:59.023Z,2.80
2022-09-01T19:18:39.566Z,2.30
2022-09-01T19:21:08.098Z,2.50
2022-09-01T19:23:44.299Z,2.72
2022-09-01T19:26:15.911Z,2.70
2022-09-01T19:28:58.423Z,2.72
2022-09-01T19:31:29.217Z,2.60
2022-09-01T19:34:02.695Z,2.92
2022-09-01T19:36:40.661Z,3.20
2022-09-01T19:39:11.842Z,2.80
2022-09-01T19:41:47.720Z,2.97
2022-09-01T19:44:25.587Z,2.40
2022-09-01T19:47:03.002Z,3.17
2022-09-01T19:49:43.138Z,2.95
2022-09-01T19:52:34.162Z,2.72
2022-09-01T19:55:09.886Z,3.17
2022-09-01T19:57:45.539Z,2.60
2022-09-01T20:00:20.443Z,2.95
2022-09-01T20:02:53.122Z,3.05
2022-09-01T20:05:40.269Z,2.95
2022-09-01T20:08:15.514Z,3.13
2022-09-01T20:11:07.718Z,3.13
2022-09-01T20:13:58.517Z,3.17
2022-09-01T20:16:44.501Z,3.28
2022-09-01T20:19:16.452Z,3.53
2022-09-01T20:21:47.981Z,2.97
2022-09-01T20:24:39.888Z,3.07
2022-09-01T20:27:44.063Z,3.55
2022-09-01T20:30:14.346Z,3.05
2022-09-01T20:33:03.293Z,3.22
2022-09-01T20:35:39.808Z,3.40
2022-09-01T20:38:35.524Z,3.90
2022-09-01T20:41:18.141Z,2.95
2022-09-01T20:43:49.130Z,4.30
2022-09-01T20:46:19.698Z,3.88
2022-09-01T20:48:48.001Z,3.85
2022-09-01T20:51:21.604Z,3.60
2022-09-01T20:54:19.170Z,4.10
2022-09-01T20:57:23.283Z,3.47
2022-09-01T20:59:54.564Z,3.50
2022-09-01T21:02:33.289Z,3.78
2022-09-01T21:05:11.078Z,3.40
2022-09-01T21:08:25.891Z,3.97
2022-09-01T21:11:04.102Z,3.95
2022-09-01T21:13:33.492Z,3.97
2022-09-01T21:16:08.770Z,3.90
2022-09-01T21:18:47.123Z,3.90
2022-09-01T21:21:28.896Z,3.40
2022-09-01T21:23:55.370Z,3.55
2022-09-01T21:26:21.907Z,3.80
2022-09-01T21:28:53.102Z,3.60
2022-09-01T21:31:20.073Z,3.70
2022-09-01T21:33:46.790Z,4.00
2022-09-01T21:36:13.325Z,3.92
2022-09-01T21:38:39.845Z,4.10
2022-09-01T21:41:10.840Z,4.15
2022-09-01T21:43:43.853Z,3.93
2022-09-01T21:46:10.887Z,3.60
2022-09-01T21:48:37.442Z,4.10
2022-09-01T21:51:04.844Z,3.90
2022-09-01T21:53:32.800Z,4.10
2022-09-01T21:55:59.721Z,3.60
2022-09-01T21:58:26.241Z,3.80
2022-09-01T22:00:52.790Z,3.63
2022-09-01T22:03:19.579Z,4.13
2022-09-01T22:05:46.252Z,4.43
2022-09-01T22:08:14.135Z,4.13
2022-09-01T22:10:46.786Z,3.88
2022-09-01T22:13:13.591Z,4.05
2022-09-01T22:15:42.827Z,3.65
2022-09-01T22:18:09.559Z,3.92
2022-09-01T22:20:36.019Z,4.20
2022-09-01T22:23:02.833Z,3.88
2022-09-01T22:25:31.075Z,4.20
2022-09-01T22:27:59.153Z,4.28
2022-09-01T22:30:25.708Z,4.38
2022-09-01T22:32:53.992Z,4.60
2022-09-01T22:35:20.811Z,4.50
2022-09-01T22:37:47.738Z,4.18
2022-09-01T22:40:15.590Z,4.80
2022-09-01T22:42:43.023Z,4.72
2022-09-01T22:45:11.075Z,4.60
2022-09-01T22:47:38.395Z,4.55
2022-09-01T22:50:07.738Z,4.60
2022-09-01T22:52:35.641Z,4.78
2022-09-01T22:55:03.343Z,4.85
2022-09-01T22:57:29.987Z,5.53
2022-09-01T22:59:56.598Z,4.90
2022-09-01T23:02:23.483Z,5.15
2022-09-01T23:04:50.437Z,5.60
2022-09-01T23:07:17.172Z,5.43
2022-09-01T23:09:43.671Z,5.83
2022-09-01T23:12:10.118Z,5.07
2022-09-01T23:14:36.565Z,5.15
2022-09-01T23:17:03.213Z,5.10
2022-09-01T23:19:29.667Z,5.55
2022-09-01T23:21:56.110Z,5.10
2022-09-01T23:24:22.822Z,4.55
2022-09-01T23:26:49.834Z,4.78
2022-09-01T23:29:17.256Z,4.13
2022-09-01T23:31:44.263Z,4.80
2022-09-01T23:34:13.269Z,4.70
2022-09-01T23:36:40.758Z,4.32
2022-09-01T23:39:07.698Z,4.60
2022-09-01T23:41:36.939Z,4.15
2022-09-01T23:44:06.026Z,4.88
2022-09-01T23:46:35.209Z,4.17
2022-09-01T23:49:02.220Z,5.03
2022-09-01T23:51:29.581Z,5.25
2022-09-01T23:53:56.421Z,4.53
2022-09-01T23:56:25.826Z,4.50
2022-09-01T23:58:52.882Z,4.53
